createdAt,value
2018-01-13T00:00:05.662Z,9.20
2018-01-13T00:02:33.660Z,9.20
2018-01-13T00:05:01.706Z,9.20
2018-01-13T00:07:29.753Z,9.20
2018-01-13T00:09:57.754Z,9.20
2018-01-13T00:12:25.797Z,9.20
2018-01-13T00:14:53.822Z,9.20
2018-01-13T00:17:21.829Z,9.20
2018-01-13T00:19:50.134Z,9.10
2018-01-13T00:22:18.154Z,9.10
2018-01-13T00:24:46.921Z,9.10
2018-01-13T00:27:14.972Z,9.10
2018-01-13T00:29:42.991Z,9.10
2018-01-13T00:32:11.766Z,9.10
2018-01-13T00:34:39.794Z,9.10
2018-01-13T00:37:07.890Z,9.10
2018-01-13T00:39:35.890Z,9.10
2018-01-13T00:42:04.650Z,9.00
2018-01-13T00:44:32.671Z,9.00
2018-01-13T00:47:00.678Z,9.00
2018-01-13T00:49:28.675Z,9.00
2018-01-13T00:51:56.702Z,9.00
2018-01-13T00:54:24.682Z,9.00
2018-01-13T00:56:52.712Z,9.00
2018-01-13T00:59:20.718Z,9.00
2018-01-13T01:01:48.743Z,9.00
2018-01-13T01:04:17.491Z,9.00
2018-01-13T01:06:45.506Z,8.90
2018-01-13T01:09:13.558Z,9.00
2018-01-13T01:11:42.314Z,8.90
2018-01-13T01:14:11.055Z,8.90
2018-01-13T01:16:39.070Z,8.90
2018-01-13T01:19:07.101Z,8.90
2018-01-13T01:21:35.121Z,8.90
2018-01-13T01:24:03.151Z,8.90
2018-01-13T01:26:31.174Z,8.90
2018-01-13T01:28:59.936Z,8.80
2018-01-13T01:31:27.937Z,8.80
2018-01-13T01:33:56.786Z,8.80
2018-01-13T01:36:24.821Z,8.80
2018-01-13T01:38:52.882Z,8.80
2018-01-13T01:41:21.682Z,8.80
2018-01-13T01:43:49.701Z,8.80
2018-01-13T01:46:17.711Z,8.80
2018-01-13T01:48:45.734Z,8.80
2018-01-13T01:51:13.747Z,8.80
2018-01-13T01:53:42.558Z,8.70
2018-01-13T01:56:10.577Z,8.70
2018-01-13T01:58:38.574Z,8.70
2018-01-13T02:01:07.316Z,8.70
2018-01-13T02:03:35.344Z,8.70
2018-01-13T02:06:03.362Z,8.70
2018-01-13T02:08:31.433Z,8.70
2018-01-13T02:10:59.446Z,8.70
2018-01-13T02:13:27.449Z,8.70
2018-01-13T02:15:55.472Z,8.70
2018-01-13T02:18:24.250Z,8.70
2018-01-13T02:20:53.033Z,8.70
2018-01-13T02:23:21.099Z,8.70
2018-01-13T02:25:49.124Z,8.70
2018-01-13T02:28:17.129Z,8.70
2018-01-13T02:30:45.153Z,8.70
2018-01-13T02:33:13.145Z,8.70
2018-01-13T02:35:41.223Z,8.70
2018-01-13T02:38:09.225Z,8.70
2018-01-13T02:40:37.242Z,8.70
2018-01-13T02:43:05.258Z,8.70
2018-01-13T02:45:33.236Z,8.70
2018-01-13T02:48:01.282Z,8.70
2018-01-13T02:50:29.295Z,8.70
2018-01-13T02:52:58.073Z,8.70
2018-01-13T02:55:26.847Z,8.70
2018-01-13T02:57:54.902Z,8.70
2018-01-13T03:00:22.900Z,8.70
2018-01-13T03:02:51.702Z,8.60
2018-01-13T03:05:20.475Z,8.70
2018-01-13T03:07:49.290Z,8.60
2018-01-13T03:10:17.298Z,8.60
2018-01-13T03:12:45.309Z,8.70
2018-01-13T03:15:14.105Z,8.70
2018-01-13T03:17:42.889Z,8.70
2018-01-13T03:20:11.666Z,8.70
2018-01-13T03:22:40.430Z,8.70
2018-01-13T03:25:08.436Z,8.60
2018-01-13T03:27:37.207Z,8.70
2018-01-13T03:30:05.974Z,8.70
2018-01-13T03:32:33.982Z,8.60
2018-01-13T03:35:02.766Z,8.70
2018-01-13T03:37:31.550Z,8.70
2018-01-13T03:40:00.300Z,8.70
2018-01-13T03:42:29.098Z,8.70
2018-01-13T03:44:57.063Z,8.60
2018-01-13T03:47:25.093Z,8.70
2018-01-13T03:49:53.151Z,8.60
2018-01-13T03:52:21.173Z,8.70
2018-01-13T03:54:49.184Z,8.60
2018-01-13T03:57:17.201Z,8.70
2018-01-13T03:59:45.218Z,8.70
2018-01-13T04:02:14.031Z,8.60
2018-01-13T04:04:42.022Z,8.60
2018-01-13T04:07:10.042Z,8.60
2018-01-13T04:09:38.826Z,8.70
2018-01-13T04:12:07.617Z,8.70
2018-01-13T04:14:36.363Z,8.70
2018-01-13T04:17:05.186Z,8.70
2018-01-13T04:19:34.015Z,8.60
2018-01-13T04:22:01.986Z,8.70
2018-01-13T04:24:29.980Z,8.70
2018-01-13T04:26:57.987Z,8.70
2018-01-13T04:29:26.767Z,8.70
2018-01-13T04:31:55.583Z,8.70
2018-01-13T04:34:23.597Z,8.70
2018-01-13T04:36:51.639Z,8.70
2018-01-13T04:39:19.653Z,8.70
2018-01-13T04:41:47.698Z,8.70
2018-01-13T04:44:15.724Z,8.70
2018-01-13T04:46:44.498Z,8.70
2018-01-13T04:49:13.260Z,8.70
2018-01-13T04:51:41.265Z,8.70
2018-01-13T04:54:10.062Z,8.70
2018-01-13T04:56:38.042Z,8.70
2018-01-13T04:59:06.055Z,8.70
2018-01-13T05:01:34.094Z,8.70
2018-01-13T05:04:02.082Z,8.70
2018-01-13T05:06:30.095Z,8.70
2018-01-13T05:08:58.878Z,8.70
2018-01-13T05:11:27.685Z,8.70
2018-01-13T05:13:55.663Z,8.70
2018-01-13T05:16:23.667Z,8.70
2018-01-13T05:18:51.690Z,8.70
2018-01-13T05:21:19.710Z,8.70
2018-01-13T05:23:47.709Z,8.70
2018-01-13T05:26:16.494Z,8.70
2018-01-13T05:28:44.508Z,8.70
2018-01-13T05:31:12.485Z,8.70
2018-01-13T05:33:40.503Z,8.70
2018-01-13T05:36:08.530Z,8.70
2018-01-13T05:38:36.557Z,8.70
2018-01-13T05:41:05.353Z,8.70
2018-01-13T05:43:34.106Z,8.70
2018-01-13T05:46:02.102Z,8.70
2018-01-13T05:48:30.871Z,8.70
2018-01-13T05:50:58.871Z,8.70
2018-01-13T05:53:26.871Z,8.70
2018-01-13T05:55:54.880Z,8.80
2018-01-13T05:58:22.867Z,8.70
2018-01-13T06:00:51.682Z,8.70
2018-01-13T06:03:19.709Z,8.70
2018-01-13T06:05:47.719Z,8.70
2018-01-13T06:08:15.730Z,8.70
2018-01-13T06:10:44.523Z,8.70
2018-01-13T06:13:12.538Z,8.70
2018-01-13T06:15:40.522Z,8.80
2018-01-13T06:18:08.491Z,8.70
2018-01-13T06:20:36.487Z,8.70
2018-01-13T06:23:04.509Z,8.80
2018-01-13T06:25:33.267Z,8.80
2018-01-13T06:28:01.303Z,8.70
2018-01-13T06:30:29.312Z,8.80
2018-01-13T06:32:57.311Z,8.80
2018-01-13T06:35:25.357Z,8.80
2018-01-13T06:37:54.121Z,8.80
2018-01-13T06:40:22.893Z,8.80
2018-01-13T06:42:50.924Z,8.80
2018-01-13T06:45:18.953Z,8.80
2018-01-13T06:47:46.969Z,8.80
2018-01-13T06:50:14.958Z,8.80
2018-01-13T06:52:42.993Z,8.80
2018-01-13T06:55:11.769Z,8.80
2018-01-13T06:57:39.758Z,8.80
2018-01-13T07:00:08.551Z,8.80
2018-01-13T07:02:36.528Z,8.80
2018-01-13T07:05:04.538Z,8.80
2018-01-13T07:07:32.586Z,8.80
2018-01-13T07:10:00.635Z,8.80
2018-01-13T07:12:28.686Z,8.80
2018-01-13T07:14:57.493Z,8.80
2018-01-13T07:17:25.489Z,8.80
2018-01-13T07:19:53.513Z,8.80
2018-01-13T07:22:22.261Z,8.80
2018-01-13T07:24:51.011Z,8.80
2018-01-13T07:27:19.007Z,8.80
2018-01-13T07:29:47.013Z,8.80
2018-01-13T07:32:14.983Z,8.80
2018-01-13T07:34:42.982Z,8.90
2018-01-13T07:37:11.237Z,8.80
2018-01-13T07:39:40.009Z,8.90
2018-01-13T07:42:08.023Z,8.80
2018-01-13T07:44:36.030Z,8.90
2018-01-13T07:47:04.060Z,8.90
2018-01-13T07:49:32.039Z,8.80
2018-01-13T07:52:00.033Z,8.90
2018-01-13T07:54:28.006Z,8.90
2018-01-13T07:56:56.785Z,8.90
2018-01-13T07:59:24.789Z,8.90
2018-01-13T08:01:52.796Z,8.90
2018-01-13T08:04:20.814Z,8.90
2018-01-13T08:06:48.861Z,8.90
2018-01-13T08:09:17.674Z,8.90
2018-01-13T08:11:45.662Z,8.90
2018-01-13T08:14:14.421Z,8.90
2018-01-13T08:16:42.424Z,8.90
2018-01-13T08:19:11.195Z,8.90
2018-01-13T08:21:39.189Z,8.90
2018-01-13T08:24:07.258Z,8.90
2018-01-13T08:26:36.046Z,8.90
2018-01-13T08:29:04.819Z,8.90
2018-01-13T08:31:32.830Z,8.90
2018-01-13T08:34:00.857Z,9.00
2018-01-13T08:36:28.831Z,8.90
2018-01-13T08:38:57.610Z,9.00
2018-01-13T08:41:25.614Z,8.90
2018-01-13T08:43:53.626Z,9.00
2018-01-13T08:46:21.633Z,9.00
2018-01-13T08:48:50.443Z,9.00
2018-01-13T08:51:18.469Z,9.00
2018-01-13T08:53:46.478Z,9.00
2018-01-13T08:56:14.478Z,9.00
2018-01-13T08:58:42.556Z,9.00
2018-01-13T09:01:11.383Z,9.00
2018-01-13T09:03:39.451Z,9.00
2018-01-13T09:06:07.510Z,9.00
2018-01-13T09:08:35.614Z,9.00
2018-01-13T09:11:04.413Z,9.00
2018-01-13T09:13:32.421Z,9.00
2018-01-13T09:16:00.453Z,9.00
2018-01-13T09:18:28.426Z,9.00
2018-01-13T09:20:56.379Z,9.10
2018-01-13T09:23:25.209Z,9.10
2018-01-13T09:25:53.278Z,9.10
2018-01-13T09:28:21.278Z,9.10
2018-01-13T09:30:49.306Z,9.10
2018-01-13T09:33:17.327Z,9.10
2018-01-13T09:35:45.341Z,9.10
2018-01-13T09:38:13.331Z,9.10
2018-01-13T09:40:41.343Z,9.10
2018-01-13T09:43:10.137Z,9.20
2018-01-13T09:45:38.948Z,9.20
2018-01-13T09:48:06.973Z,9.20
2018-01-13T09:50:34.998Z,9.20
2018-01-13T09:53:03.039Z,9.20
2018-01-13T09:55:31.817Z,9.20
2018-01-13T09:58:00.617Z,9.30
2018-01-13T10:00:29.401Z,9.30
2018-01-13T10:02:58.142Z,9.30
2018-01-13T10:05:26.158Z,9.30
2018-01-13T10:07:54.972Z,9.30
2018-01-13T10:10:23.007Z,9.30
2018-01-13T10:12:51.850Z,9.30
2018-01-13T10:15:19.826Z,9.30
2018-01-13T10:17:47.899Z,9.40
2018-01-13T10:20:16.004Z,9.40
2018-01-13T10:22:43.978Z,9.40
2018-01-13T10:25:12.774Z,9.40
2018-01-13T10:27:41.590Z,9.50
2018-01-13T10:30:09.566Z,9.50
2018-01-13T10:32:37.585Z,9.50
2018-01-13T10:35:05.618Z,9.50
2018-01-13T10:37:33.627Z,9.50
2018-01-13T10:40:02.418Z,9.60
2018-01-13T10:42:31.193Z,9.60
2018-01-13T10:44:59.180Z,9.60
2018-01-13T10:47:27.955Z,9.70
2018-01-13T10:49:55.985Z,9.70
2018-01-13T10:52:23.963Z,9.70
2018-01-13T10:54:51.946Z,9.70
2018-01-13T10:57:19.970Z,9.70
2018-01-13T10:59:47.946Z,9.80
2018-01-13T11:02:15.958Z,9.80
2018-01-13T11:04:43.990Z,9.80
2018-01-13T11:07:12.023Z,9.80
2018-01-13T11:09:40.799Z,9.90
2018-01-13T11:12:08.868Z,9.80
2018-01-13T11:14:36.870Z,9.90
2018-01-13T11:17:04.891Z,9.90
2018-01-13T11:19:32.932Z,9.90
2018-01-13T11:22:00.938Z,9.90
2018-01-13T11:24:28.910Z,9.90
2018-01-13T11:26:56.895Z,9.90
2018-01-13T11:29:24.911Z,10.00
2018-01-13T11:31:52.924Z,10.00
2018-01-13T11:34:20.954Z,10.00
2018-01-13T11:36:48.967Z,10.00
2018-01-13T11:39:16.995Z,10.00
2018-01-13T11:41:45.026Z,10.00
2018-01-13T11:44:13.795Z,10.00
2018-01-13T11:46:41.825Z,10.00
2018-01-13T11:49:09.837Z,10.00
2018-01-13T11:51:37.871Z,10.10
2018-01-13T11:54:05.866Z,10.10
2018-01-13T11:56:33.952Z,10.10
2018-01-13T11:59:02.727Z,10.10
2018-01-13T12:01:30.783Z,10.10
2018-01-13T12:03:58.802Z,10.10
2018-01-13T12:06:26.811Z,10.10
2018-01-13T12:08:54.820Z,10.10
2018-01-13T12:11:23.583Z,10.10
2018-01-13T12:13:51.605Z,10.10
2018-01-13T12:16:19.662Z,10.20
2018-01-13T12:18:48.438Z,10.10
2018-01-13T12:21:17.222Z,10.10
2018-01-13T12:23:45.957Z,10.20
2018-01-13T12:26:13.953Z,10.10
2018-01-13T12:28:41.948Z,10.20
2018-01-13T12:31:10.754Z,10.20
2018-01-13T12:33:38.783Z,10.20
2018-01-13T12:36:06.822Z,10.20
2018-01-13T12:38:34.839Z,10.20
2018-01-13T12:41:02.933Z,10.20
2018-01-13T12:43:31.798Z,10.20
2018-01-13T12:45:59.826Z,10.20
2018-01-13T12:48:27.827Z,10.20
2018-01-13T12:50:55.838Z,10.20
2018-01-13T12:53:23.834Z,10.20
2018-01-13T12:55:51.849Z,10.30
2018-01-13T12:58:19.874Z,10.30
2018-01-13T13:00:47.882Z,10.30
2018-01-13T13:03:15.934Z,10.30
2018-01-13T13:05:43.982Z,10.30
2018-01-13T13:08:11.974Z,10.30
2018-01-13T13:10:39.998Z,10.30
2018-01-13T13:13:08.025Z,10.30
2018-01-13T13:15:36.809Z,10.30
2018-01-13T13:18:04.878Z,10.30
2018-01-13T13:20:32.886Z,10.30
2018-01-13T13:23:01.666Z,10.30
2018-01-13T13:25:30.471Z,10.40
2018-01-13T13:27:59.326Z,10.40
2018-01-13T13:30:27.365Z,10.40
2018-01-13T13:32:55.419Z,10.40
2018-01-13T13:35:23.422Z,10.40
2018-01-13T13:37:51.436Z,10.40
2018-01-13T13:40:20.231Z,10.40
2018-01-13T13:42:48.996Z,10.40
2018-01-13T13:45:17.038Z,10.40
2018-01-13T13:47:45.059Z,10.40
2018-01-13T13:50:13.882Z,10.50
2018-01-13T13:52:41.886Z,10.50
2018-01-13T13:55:09.887Z,10.50
2018-01-13T13:57:38.657Z,10.50
2018-01-13T14:00:08.487Z,10.50
2018-01-13T14:02:36.634Z,10.50
2018-01-13T14:05:04.669Z,10.50
2018-01-13T14:07:32.691Z,10.50
2018-01-13T14:10:01.448Z,10.60
2018-01-13T14:12:29.477Z,10.60
2018-01-13T14:14:58.028Z,10.60
2018-01-13T14:17:25.578Z,10.60
2018-01-13T14:19:53.579Z,10.60
2018-01-13T14:22:21.623Z,10.60
2018-01-13T14:24:50.433Z,10.60
2018-01-13T14:27:18.415Z,10.60
2018-01-13T14:29:46.426Z,10.60
2018-01-13T14:32:14.458Z,10.60
2018-01-13T14:34:42.451Z,10.60
2018-01-13T14:37:10.453Z,10.60
2018-01-13T14:39:38.459Z,10.60
2018-01-13T14:42:06.498Z,10.60
2018-01-13T14:44:34.506Z,10.60
2018-01-13T14:47:02.582Z,10.60
2018-01-13T14:49:30.622Z,10.70
2018-01-13T14:51:59.383Z,10.70
2018-01-13T14:54:27.393Z,10.60
2018-01-13T14:56:55.376Z,10.60
2018-01-13T14:59:23.417Z,10.60
2018-01-13T15:01:52.219Z,10.60
2018-01-13T15:04:20.198Z,10.60
2018-01-13T15:06:48.251Z,10.70
2018-01-13T15:09:17.045Z,10.60
2018-01-13T15:11:45.145Z,10.60
2018-01-13T15:14:13.147Z,10.60
2018-01-13T15:16:41.158Z,10.60
2018-01-13T15:19:09.193Z,10.60
2018-01-13T15:21:37.177Z,10.60
2018-01-13T15:24:05.955Z,10.60
2018-01-13T15:26:33.946Z,10.60
2018-01-13T15:29:01.944Z,10.60
2018-01-13T15:31:29.965Z,10.60
2018-01-13T15:33:58.751Z,10.60
2018-01-13T15:36:26.794Z,10.60
2018-01-13T15:38:54.818Z,10.60
2018-01-13T15:41:22.849Z,10.60
2018-01-13T15:43:50.885Z,10.60
2018-01-13T15:46:18.906Z,10.60
2018-01-13T15:48:47.680Z,10.60
2018-01-13T15:51:15.698Z,10.60
2018-01-13T15:53:43.751Z,10.60
2018-01-13T15:56:12.557Z,10.50
2018-01-13T15:58:40.574Z,10.50
2018-01-13T16:01:08.611Z,10.50
2018-01-13T16:03:36.599Z,10.60
2018-01-13T16:06:04.646Z,10.50
2018-01-13T16:08:32.662Z,10.50
2018-01-13T16:11:00.686Z,10.50
2018-01-13T16:13:28.725Z,10.50
2018-01-13T16:15:57.522Z,10.50
2018-01-13T16:18:25.539Z,10.50
2018-01-13T16:20:53.543Z,10.50
2018-01-13T16:23:22.342Z,10.50
2018-01-13T16:25:50.358Z,10.50
2018-01-13T16:28:18.378Z,10.40
2018-01-13T16:30:47.173Z,10.40
2018-01-13T16:33:15.176Z,10.40
2018-01-13T16:35:43.187Z,10.40
2018-01-13T16:38:11.194Z,10.40
2018-01-13T16:40:39.202Z,10.40
2018-01-13T16:43:07.231Z,10.40
2018-01-13T16:45:35.242Z,10.40
2018-01-13T16:48:03.274Z,10.30
2018-01-13T16:50:31.284Z,10.30
2018-01-13T16:52:59.321Z,10.30
2018-01-13T16:55:27.330Z,10.30
2018-01-13T16:57:55.355Z,10.30
2018-01-13T17:00:23.359Z,10.30
2018-01-13T17:02:51.430Z,10.30
2018-01-13T17:05:19.473Z,10.20
2018-01-13T17:07:47.470Z,10.20
2018-01-13T17:10:15.487Z,10.20
2018-01-13T17:12:43.510Z,10.20
2018-01-13T17:15:12.308Z,10.20
2018-01-13T17:17:40.301Z,10.10
2018-01-13T17:20:09.187Z,10.10
2018-01-13T17:22:38.024Z,10.10
2018-01-13T17:25:06.041Z,10.10
2018-01-13T17:27:34.054Z,10.10
2018-01-13T17:30:02.098Z,10.10
2018-01-13T17:32:30.865Z,10.00
2018-01-13T17:34:58.897Z,10.00
2018-01-13T17:37:26.929Z,10.00
2018-01-13T17:39:55.759Z,10.00
2018-01-13T17:42:24.574Z,9.90
2018-01-13T17:44:52.601Z,10.00
2018-01-13T17:47:20.630Z,9.90
2018-01-13T17:49:48.670Z,9.90
2018-01-13T17:52:16.687Z,9.90
2018-01-13T17:54:45.501Z,9.90
2018-01-13T17:57:13.471Z,9.90
2018-01-13T17:59:41.498Z,9.90
2018-01-13T18:02:09.533Z,9.90
2018-01-13T18:04:37.526Z,9.90
2018-01-13T18:07:05.547Z,9.80
2018-01-13T18:09:33.609Z,9.80
2018-01-13T18:12:01.690Z,9.80
2018-01-13T18:14:29.689Z,9.80
2018-01-13T18:16:58.475Z,9.80
2018-01-13T18:19:26.506Z,9.80
2018-01-13T18:21:54.635Z,9.70
2018-01-13T18:24:22.665Z,9.70
2018-01-13T18:26:50.690Z,9.70
2018-01-13T18:29:18.729Z,9.70
2018-01-13T18:31:46.723Z,9.70
2018-01-13T18:34:14.779Z,9.70
2018-01-13T18:36:42.798Z,9.60
2018-01-13T18:39:10.818Z,9.60
2018-01-13T18:41:38.845Z,9.60
2018-01-13T18:44:06.843Z,9.60
2018-01-13T18:46:34.862Z,9.60
2018-01-13T18:49:03.639Z,9.60
2018-01-13T18:51:32.424Z,9.50
2018-01-13T18:54:01.219Z,9.50
2018-01-13T18:56:29.987Z,9.60
2018-01-13T18:58:57.990Z,9.50
2018-01-13T19:01:26.002Z,9.50
2018-01-13T19:03:53.986Z,9.50
2018-01-13T19:06:21.999Z,9.50
2018-01-13T19:08:50.007Z,9.50
2018-01-13T19:11:18.002Z,9.50
2018-01-13T19:13:46.050Z,9.40
2018-01-13T19:16:14.075Z,9.40
2018-01-13T19:18:42.861Z,9.40
2018-01-13T19:21:11.633Z,9.40
2018-01-13T19:23:39.666Z,9.40
2018-01-13T19:26:07.656Z,9.40
2018-01-13T19:28:35.674Z,9.40
2018-01-13T19:31:03.697Z,9.40
2018-01-13T19:33:31.761Z,9.30
2018-01-13T19:35:59.748Z,9.40
2018-01-13T19:38:27.753Z,9.30
2018-01-13T19:40:55.754Z,9.30
2018-01-13T19:43:23.741Z,9.30
2018-01-13T19:45:51.770Z,9.30
2018-01-13T19:48:19.865Z,9.30
2018-01-13T19:50:47.885Z,9.20
2018-01-13T19:53:16.664Z,9.20
2018-01-13T19:55:45.446Z,9.20
2018-01-13T19:58:13.465Z,9.20
2018-01-13T20:00:41.484Z,9.20
2018-01-13T20:03:09.495Z,9.20
2018-01-13T20:05:37.528Z,9.20
2018-01-13T20:08:06.312Z,9.20
2018-01-13T20:10:34.314Z,9.20
2018-01-13T20:13:02.297Z,9.20
2018-01-13T20:15:30.302Z,9.20
2018-01-13T20:17:58.311Z,9.10
2018-01-13T20:20:27.055Z,9.10
2018-01-13T20:22:55.074Z,9.10
2018-01-13T20:25:23.078Z,9.10
2018-01-13T20:27:51.087Z,9.10
2018-01-13T20:30:19.130Z,9.10
2018-01-13T20:32:47.162Z,9.10
2018-01-13T20:35:15.185Z,9.10
2018-01-13T20:37:43.205Z,9.10
2018-01-13T20:40:11.209Z,9.10
2018-01-13T20:42:39.268Z,9.10
2018-01-13T20:45:07.306Z,9.00
2018-01-13T20:47:35.327Z,9.00
2018-01-13T20:50:03.347Z,9.00
2018-01-13T20:52:31.416Z,9.00
2018-01-13T20:54:59.412Z,9.00
2018-01-13T20:57:27.394Z,9.00
2018-01-13T20:59:55.398Z,9.00
2018-01-13T21:02:23.414Z,9.00
2018-01-13T21:04:51.417Z,9.00
2018-01-13T21:07:19.454Z,9.00
2018-01-13T21:09:47.465Z,9.00
2018-01-13T21:12:15.496Z,9.00
2018-01-13T21:14:43.519Z,9.00
2018-01-13T21:17:11.535Z,9.00
2018-01-13T21:19:39.574Z,9.00
2018-01-13T21:22:08.326Z,9.00
2018-01-13T21:24:36.370Z,9.00
2018-01-13T21:27:04.381Z,9.00
2018-01-13T21:29:32.395Z,9.00
2018-01-13T21:32:00.431Z,9.00
2018-01-13T21:34:29.216Z,8.90
2018-01-13T21:36:57.989Z,9.00
2018-01-13T21:39:25.989Z,9.00
2018-01-13T21:41:54.751Z,9.00
2018-01-13T21:44:22.766Z,8.90
2018-01-13T21:46:50.729Z,8.90
2018-01-13T21:49:18.727Z,9.00
2018-01-13T21:51:46.762Z,8.90
2018-01-13T21:54:14.747Z,8.90
2018-01-13T21:56:42.735Z,8.90
2018-01-13T21:59:10.740Z,8.90
2018-01-13T22:01:38.809Z,8.90
2018-01-13T22:04:06.828Z,8.90
2018-01-13T22:06:34.885Z,8.90
2018-01-13T22:09:04.870Z,8.90
2018-01-13T22:11:32.874Z,8.90
2018-01-13T22:14:00.898Z,8.90
2018-01-13T22:16:28.934Z,8.90
2018-01-13T22:18:56.949Z,8.90
2018-01-13T22:21:24.927Z,8.90
2018-01-13T22:23:53.722Z,8.90
2018-01-13T22:26:22.501Z,8.90
2018-01-13T22:28:51.250Z,8.90
2018-01-13T22:31:19.248Z,8.90
2018-01-13T22:33:47.254Z,8.90
2018-01-13T22:36:15.301Z,8.90
2018-01-13T22:38:44.076Z,8.90
2018-01-13T22:41:12.101Z,8.90
2018-01-13T22:43:40.138Z,8.90
2018-01-13T22:46:08.941Z,8.90
2018-01-13T22:48:36.926Z,8.90
2018-01-13T22:51:04.954Z,8.90
2018-01-13T22:53:33.758Z,8.90
2018-01-13T22:56:01.796Z,8.90
2018-01-13T22:58:29.827Z,8.90
2018-01-13T23:00:57.818Z,8.90
2018-01-13T23:03:25.849Z,8.90
2018-01-13T23:05:53.870Z,8.90
2018-01-13T23:08:21.894Z,8.90
2018-01-13T23:10:49.901Z,8.90
2018-01-13T23:13:17.928Z,8.90
2018-01-13T23:15:45.998Z,8.90
2018-01-13T23:18:13.992Z,8.90
2018-01-13T23:20:42.013Z,8.90
2018-01-13T23:23:10.777Z,8.90
2018-01-13T23:25:38.785Z,8.90
2018-01-13T23:28:07.567Z,8.90
2018-01-13T23:30:36.361Z,8.90
2018-01-13T23:33:04.355Z,8.90
2018-01-13T23:35:32.377Z,8.90
2018-01-13T23:38:00.388Z,8.90
2018-01-13T23:40:28.471Z,8.90
2018-01-13T23:42:56.482Z,8.90
2018-01-13T23:45:24.475Z,8.90
2018-01-13T23:47:53.273Z,8.90
2018-01-13T23:50:21.314Z,8.90
2018-01-13T23:52:49.334Z,8.90
2018-01-13T23:55:17.327Z,8.90
2018-01-13T23:57:45.322Z,8.90
